EKVH weather

Vesthimmerlands Flyveplads
Aars, North Jutland, Denmark

Public forecast

Using degrees Celsius for public forecast. Weather courtesy of forecast.io.

METAR (pilot weather report)

Closest report is Aalborg Airport, 19.5 nm (36.2 km) NE. Retrieved 2019/05/26 11:20 UTC (14 minutes ago):

EKYT 261120Z AUTO 27015G25KT 240V300 9999 SCT027/// BKN032/// 13/06 Q1003

TAF (pilot weather forecast)

Closest forecast is Aalborg Airport, 19.5 nm (36.2 km) NE. Retrieved 2019/05/26 09:31 UTC (2 hours ago):

TAF EKYT 260823Z 2609/2709 27015KT 9999 FEW015 BKN030 TEMPO 2609/2615 28018G28KT BECMG 2620/2623 26005KT TEMPO 2700/2709 5000 -RA